Time;durP1;ratioP1;P1;durP2;ratioP2;P2;SDS_P1;SDS_P2;PMS_P1;PMS_P2;Temp;Humidity;BMP_temperature;BMP_pressure;BME280_temperature;BME280_humidity;BME280_pressure;Samples;Min_cycle;Max_cycle;Signal;HPM_P1;HPM_P2
2023/04/22 00:01:47;;;;;;;2.25;1.80;;;12.20;99.90;;;;;;5051632;28;20029;-44
2023/04/22 00:04:13;;;;;;;3.05;1.92;;;12.20;99.90;;;;;;5051645;28;20086;-41
2023/04/22 00:06:39;;;;;;;2.55;1.83;;;12.20;99.90;;;;;;5051312;28;20025;-43
2023/04/22 00:09:05;;;;;;;3.15;1.75;;;12.20;99.90;;;;;;5051472;28;20036;-43
2023/04/22 00:11:30;;;;;;;2.00;1.70;;;12.20;99.90;;;;;;5051759;28;20067;-42
2023/04/22 00:13:56;;;;;;;1.85;1.63;;;12.20;99.90;;;;;;5051587;28;20483;-43
2023/04/22 00:16:21;;;;;;;2.30;1.60;;;12.20;99.90;;;;;;5050992;28;20025;-41
2023/04/22 00:18:48;;;;;;;3.00;1.67;;;12.20;99.90;;;;;;5051342;28;20025;-43
2023/04/22 00:21:13;;;;;;;2.65;1.83;;;12.10;99.90;;;;;;5053710;28;20031;-42
2023/04/22 00:23:39;;;;;;;1.90;1.50;;;12.20;99.90;;;;;;5052738;28;20417;-43
2023/04/22 00:26:05;;;;;;;2.35;1.90;;;12.20;99.90;;;;;;5052313;28;20092;-43
2023/04/22 00:28:30;;;;;;;3.33;1.60;;;12.20;99.90;;;;;;5053420;28;20036;-44
2023/04/22 00:30:57;;;;;;;2.90;1.75;;;12.10;99.90;;;;;;5051824;28;20021;-43
2023/04/22 00:33:23;;;;;;;2.40;1.55;;;12.10;99.90;;;;;;5052826;28;20033;-41
2023/04/22 00:35:49;;;;;;;2.92;1.77;;;12.20;99.90;;;;;;5052414;28;20025;-42
2023/04/22 00:38:15;;;;;;;1.92;1.48;;;12.10;99.90;;;;;;5051571;28;20387;-44
2023/04/22 00:40:40;;;;;;;2.28;1.70;;;12.20;99.90;;;;;;5053871;28;20032;-44
2023/04/22 00:43:07;;;;;;;2.10;1.60;;;12.20;99.90;;;;;;5052501;28;20021;-39
2023/04/22 00:45:35;;;;;;;2.33;1.67;;;12.10;99.90;;;;;;5052293;28;20032;-44
2023/04/22 00:48:01;;;;;;;2.20;1.70;;;12.10;99.90;;;;;;5052125;28;20086;-43
2023/04/22 00:50:27;;;;;;;2.78;2.08;;;12.20;99.90;;;;;;5052031;28;20028;-43
2023/04/22 00:52:53;;;;;;;2.25;1.70;;;12.10;99.90;;;;;;5052644;28;20128;-45
2023/04/22 00:55:18;;;;;;;2.75;1.80;;;12.20;99.90;;;;;;5052783;28;20036;-43
2023/04/22 00:57:47;;;;;;;4.70;1.70;;;12.10;99.90;;;;;;5051224;28;20435;-43
2023/04/22 01:00:13;;;;;;;3.40;1.83;;;12.10;99.90;;;;;;5051343;28;20029;-44
2023/04/22 01:02:39;;;;;;;2.38;1.63;;;12.10;99.90;;;;;;5052452;28;20043;-44
2023/04/22 01:05:08;;;;;;;2.35;1.50;;;12.20;99.90;;;;;;5051758;28;20033;-45
2023/04/22 01:07:34;;;;;;;2.97;1.70;;;12.20;99.90;;;;;;5051709;28;20076;-44
2023/04/22 01:10:00;;;;;;;3.08;2.00;;;12.20;99.90;;;;;;5051593;28;20446;-43
2023/04/22 01:12:26;;;;;;;2.70;1.70;;;12.20;99.90;;;;;;5052106;28;20021;-43
2023/04/22 01:14:51;;;;;;;2.53;1.67;;;12.20;99.90;;;;;;5053172;28;20044;-43
2023/04/22 01:17:18;;;;;;;2.15;1.83;;;12.10;99.90;;;;;;5051887;28;20316;-45
2023/04/22 01:19:44;;;;;;;2.92;1.80;;;12.10;99.90;;;;;;5051958;28;20383;-44
2023/04/22 01:22:12;;;;;;;1.83;1.60;;;12.10;99.90;;;;;;5052484;28;20017;-43
2023/04/22 01:24:38;;;;;;;2.15;1.50;;;12.10;99.90;;;;;;5051538;28;20048;-44
2023/04/22 01:27:04;;;;;;;2.75;2.05;;;12.10;99.90;;;;;;5051701;28;20053;-43
2023/04/22 01:29:30;;;;;;;2.97;1.90;;;12.10;99.90;;;;;;5051777;28;20372;-46
2023/04/22 01:31:56;;;;;;;2.20;1.63;;;12.10;99.90;;;;;;5052273;28;20432;-43
2023/04/22 01:34:22;;;;;;;2.00;1.60;;;12.10;99.90;;;;;;5051099;28;20391;-44
2023/04/22 01:36:50;;;;;;;4.20;1.50;;;12.10;99.90;;;;;;5051288;28;20029;-43
2023/04/22 01:39:15;;;;;;;2.30;1.58;;;12.10;99.90;;;;;;5052753;28;20025;-44
2023/04/22 01:41:41;;;;;;;2.70;1.58;;;12.20;99.90;;;;;;5052979;28;20079;-44
2023/04/22 01:44:07;;;;;;;2.67;1.67;;;12.10;99.90;;;;;;5052854;28;20013;-44
2023/04/22 01:46:32;;;;;;;2.28;1.80;;;12.10;99.90;;;;;;5050811;28;20356;-43
2023/04/22 01:48:58;;;;;;;2.95;1.73;;;12.10;99.90;;;;;;5051031;28;20033;-41
2023/04/22 01:51:24;;;;;;;2.20;1.83;;;12.10;99.90;;;;;;5051012;28;20017;-43
2023/04/22 01:53:51;;;;;;;3.15;1.70;;;12.10;99.90;;;;;;5050870;28;20054;-41
2023/04/22 01:56:17;;;;;;;3.55;1.75;;;12.10;99.90;;;;;;5049850;28;20524;-41
2023/04/22 01:58:42;;;;;;;2.78;1.60;;;12.10;99.90;;;;;;5051198;28;20044;-45
2023/04/22 02:01:10;;;;;;;3.33;1.48;;;12.10;99.90;;;;;;5051534;28;20027;-42
2023/04/22 02:03:35;;;;;;;3.13;1.70;;;12.10;99.90;;;;;;5052645;28;20037;-43
2023/04/22 02:06:01;;;;;;;3.05;1.85;;;12.10;99.90;;;;;;5050851;28;20146;-43
2023/04/22 02:08:28;;;;;;;3.33;1.90;;;12.10;99.90;;;;;;5052856;28;20116;-44
2023/04/22 02:10:54;;;;;;;2.28;1.55;;;12.10;99.90;;;;;;5055946;28;20040;-40
2023/04/22 02:13:19;;;;;;;2.33;1.70;;;12.10;99.90;;;;;;5055393;28;20079;-41
2023/04/22 02:15:45;;;;;;;2.25;1.70;;;12.10;99.90;;;;;;5055538;28;20024;-43
2023/04/22 02:18:10;;;;;;;4.30;1.75;;;12.10;99.90;;;;;;5055595;28;20032;-44
2023/04/22 02:20:36;;;;;;;4.28;1.92;;;12.10;99.90;;;;;;5054586;28;20135;-43
2023/04/22 02:23:02;;;;;;;2.85;1.60;;;12.10;99.90;;;;;;5053585;28;20041;-39
2023/04/22 02:25:28;;;;;;;2.63;1.70;;;12.10;99.90;;;;;;5054342;28;21029;-43
2023/04/22 02:27:54;;;;;;;4.75;1.65;;;12.10;99.90;;;;;;5054552;28;20104;-39
2023/04/22 02:30:20;;;;;;;3.83;1.85;;;12.10;99.90;;;;;;5053733;28;20143;-41
2023/04/22 02:32:46;;;;;;;2.20;1.55;;;12.10;99.90;;;;;;5053446;28;20049;-43
2023/04/22 02:35:12;;;;;;;2.10;1.70;;;12.10;99.90;;;;;;5053548;28;20114;-43
2023/04/22 02:37:37;;;;;;;2.25;1.65;;;12.10;99.90;;;;;;5054942;28;20299;-43
2023/04/22 02:40:04;;;;;;;2.60;1.80;;;12.10;99.90;;;;;;5055286;28;20052;-44
2023/04/22 02:42:30;;;;;;;2.55;1.50;;;12.10;99.90;;;;;;5054848;28;20079;-45
2023/04/22 02:44:55;;;;;;;2.20;1.70;;;12.10;99.90;;;;;;5053198;28;20029;-45
2023/04/22 02:47:22;;;;;;;3.38;1.55;;;12.10;99.90;;;;;;5052550;28;20139;-44
2023/04/22 02:49:48;;;;;;;1.90;1.52;;;12.10;99.90;;;;;;5053079;28;20094;-45
2023/04/22 02:52:13;;;;;;;2.95;1.80;;;12.10;99.90;;;;;;5052983;28;20491;-43
2023/04/22 02:54:39;;;;;;;4.03;1.90;;;12.00;99.90;;;;;;5053007;28;20053;-44
2023/04/22 02:57:05;;;;;;;1.98;1.60;;;12.00;99.90;;;;;;5052489;28;20103;-44
2023/04/22 02:59:30;;;;;;;3.80;1.80;;;12.00;99.90;;;;;;5052890;28;20108;-45
2023/04/22 03:01:56;;;;;;;6.00;2.28;;;12.10;99.90;;;;;;5053026;28;20555;-41
2023/04/22 03:04:24;;;;;;;4.13;1.60;;;12.00;99.90;;;;;;5052726;28;20091;-43
2023/04/22 03:06:50;;;;;;;2.28;1.63;;;12.00;99.90;;;;;;5052116;28;20043;-43
2023/04/22 03:09:16;;;;;;;2.67;1.60;;;12.00;99.90;;;;;;5053024;28;20483;-44
2023/04/22 03:11:42;;;;;;;2.00;1.60;;;12.10;99.90;;;;;;5052993;28;20075;-45
2023/04/22 03:14:07;;;;;;;2.10;1.50;;;12.10;99.90;;;;;;5054198;28;20025;-45
2023/04/22 03:16:33;;;;;;;2.45;1.60;;;12.00;99.90;;;;;;5052316;28;20479;-45
2023/04/22 03:18:58;;;;;;;5.60;1.90;;;12.00;99.90;;;;;;5052403;28;20021;-41
2023/04/22 03:21:24;;;;;;;2.72;1.77;;;12.00;99.90;;;;;;5051251;28;20028;-45
2023/04/22 03:23:49;;;;;;;4.65;1.60;;;12.00;99.90;;;;;;5052373;28;20383;-43
2023/04/22 03:26:15;;;;;;;2.45;1.80;;;12.00;99.90;;;;;;5051836;28;20028;-44
2023/04/22 03:28:41;;;;;;;3.78;1.90;;;12.10;99.90;;;;;;5052465;28;20115;-44
2023/04/22 03:31:06;;;;;;;2.92;1.52;;;12.00;99.90;;;;;;5054266;28;20040;-43
2023/04/22 03:33:32;;;;;;;2.65;1.70;;;12.00;99.90;;;;;;5052596;28;20070;-43
2023/04/22 03:35:58;;;;;;;4.40;1.67;;;12.00;99.90;;;;;;5052615;28;20479;-46
2023/04/22 03:38:24;;;;;;;2.40;1.77;;;12.00;99.90;;;;;;5053062;28;20040;-45
2023/04/22 03:40:50;;;;;;;2.72;1.77;;;12.00;99.90;;;;;;5052536;28;20021;-41
2023/04/22 03:43:15;;;;;;;4.88;1.60;;;12.00;99.90;;;;;;5052052;28;20036;-42
2023/04/22 03:45:41;;;;;;;2.25;1.75;;;12.00;99.90;;;;;;5051792;28;20554;-41
2023/04/22 03:48:07;;;;;;;3.05;2.15;;;12.00;99.90;;;;;;5051752;28;20035;-38
2023/04/22 03:50:32;;;;;;;5.53;1.73;;;12.00;99.90;;;;;;5052335;28;20040;-43
2023/04/22 03:52:58;;;;;;;4.13;1.80;;;12.00;99.90;;;;;;5052351;28;20087;-43
2023/04/22 03:55:24;;;;;;;2.53;1.70;;;12.00;99.90;;;;;;5052702;28;20490;-44
2023/04/22 03:57:49;;;;;;;1.65;1.52;;;12.00;99.90;;;;;;5052181;28;20057;-45
2023/04/22 04:00:15;;;;;;;3.70;2.00;;;12.00;99.90;;;;;;5052706;28;20403;-43
2023/04/22 04:02:41;;;;;;;3.17;1.98;;;11.90;99.90;;;;;;5051884;28;20563;-43
2023/04/22 04:05:07;;;;;;;2.35;1.85;;;12.00;99.90;;;;;;5051482;28;20059;-41
2023/04/22 04:07:33;;;;;;;3.17;1.65;;;11.90;99.90;;;;;;5052220;28;20458;-43
2023/04/22 04:09:59;;;;;;;4.43;2.22;;;11.90;99.90;;;;;;5051575;28;20025;-43
2023/04/22 04:12:24;;;;;;;3.08;2.10;;;11.90;99.90;;;;;;5051535;28;20572;-43
2023/04/22 04:14:50;;;;;;;3.03;2.17;;;11.90;99.90;;;;;;5051571;28;20029;-44
2023/04/22 04:17:15;;;;;;;3.28;2.40;;;11.90;99.90;;;;;;5050845;28;20029;-43
2023/04/22 04:19:41;;;;;;;4.43;2.20;;;12.00;99.90;;;;;;5051216;28;20368;-43
2023/04/22 04:22:07;;;;;;;4.05;2.20;;;11.90;99.90;;;;;;5051359;28;20063;-43
2023/04/22 04:24:35;;;;;;;3.33;2.42;;;11.90;99.90;;;;;;5051349;28;20044;-43
2023/04/22 04:27:01;;;;;;;3.40;2.15;;;11.90;99.90;;;;;;5051066;28;20023;-44
2023/04/22 04:29:27;;;;;;;6.20;2.65;;;11.90;99.90;;;;;;5051248;28;20066;-43
2023/04/22 04:31:54;;;;;;;2.70;1.80;;;11.90;99.90;;;;;;5051429;28;20028;-44
2023/04/22 04:34:20;;;;;;;2.58;1.88;;;11.90;99.90;;;;;;5052399;28;20029;-43
2023/04/22 04:36:46;;;;;;;5.43;1.92;;;11.90;99.90;;;;;;5050570;28;20016;-44
2023/04/22 04:39:12;;;;;;;4.45;1.80;;;11.90;99.90;;;;;;5052689;28;20031;-43
2023/04/22 04:41:37;;;;;;;3.13;1.90;;;11.90;99.90;;;;;;5053454;28;20021;-43
2023/04/22 04:44:03;;;;;;;4.20;2.20;;;11.90;99.90;;;;;;5052546;28;20028;-42
2023/04/22 04:46:29;;;;;;;3.50;2.25;;;11.90;99.90;;;;;;5050479;28;20434;-41
2023/04/22 04:48:56;;;;;;;3.28;1.65;;;11.90;99.90;;;;;;5050828;28;20027;-41
2023/04/22 04:51:22;;;;;;;2.83;1.92;;;11.90;99.90;;;;;;5049617;28;20082;-39
2023/04/22 04:53:47;;;;;;;2.17;1.83;;;11.90;99.90;;;;;;5051410;28;20032;-40
2023/04/22 04:56:13;;;;;;;3.15;1.95;;;11.90;99.90;;;;;;5051574;28;20076;-44
2023/04/22 04:58:38;;;;;;;2.80;1.85;;;11.90;99.90;;;;;;5051736;28;20029;-44
2023/04/22 05:01:05;;;;;;;2.80;1.70;;;11.90;99.90;;;;;;5050883;28;20032;-44
2023/04/22 05:03:30;;;;;;;2.47;1.65;;;11.90;99.90;;;;;;5050579;28;20053;-43
2023/04/22 05:05:56;;;;;;;3.97;1.85;;;11.90;99.90;;;;;;5050341;28;20103;-45
2023/04/22 05:08:21;;;;;;;4.38;1.90;;;11.90;99.90;;;;;;5050736;28;20033;-43
2023/04/22 05:10:47;;;;;;;2.50;1.88;;;11.90;99.90;;;;;;5050733;28;20052;-44
2023/04/22 05:13:13;;;;;;;4.05;1.60;;;11.90;99.90;;;;;;5051762;28;20024;-43
2023/04/22 05:15:38;;;;;;;5.05;1.70;;;11.90;99.90;;;;;;5051809;28;20040;-45
2023/04/22 05:18:05;;;;;;;3.30;1.95;;;11.90;99.90;;;;;;5052312;28;20028;-45
2023/04/22 05:20:30;;;;;;;4.60;1.70;;;11.90;99.90;;;;;;5050676;28;20028;-45
2023/04/22 05:22:56;;;;;;;3.13;1.95;;;11.90;99.90;;;;;;5050659;28;20017;-43
2023/04/22 05:25:21;;;;;;;4.22;1.90;;;11.90;99.90;;;;;;5050493;28;20021;-43
2023/04/22 05:27:47;;;;;;;2.53;1.80;;;11.90;99.90;;;;;;5050800;28;20407;-43
2023/04/22 05:30:13;;;;;;;3.22;1.70;;;11.90;99.90;;;;;;5053238;28;20029;-43
2023/04/22 05:32:38;;;;;;;2.60;1.92;;;11.90;99.90;;;;;;5050786;28;20104;-45
2023/04/22 05:35:04;;;;;;;4.50;1.83;;;11.90;99.90;;;;;;5050403;28;20040;-43
2023/04/22 05:37:30;;;;;;;2.75;1.73;;;11.90;99.90;;;;;;5051526;28;20036;-44
2023/04/22 05:39:56;;;;;;;2.70;1.67;;;11.90;99.90;;;;;;5050430;28;20025;-45
2023/04/22 05:42:21;;;;;;;4.10;1.60;;;11.90;99.90;;;;;;5050541;28;20075;-46
2023/04/22 05:44:47;;;;;;;4.68;1.88;;;11.90;99.90;;;;;;5053524;28;20477;-45
2023/04/22 05:47:13;;;;;;;3.35;2.00;;;11.90;99.90;;;;;;5053564;28;20108;-43
2023/04/22 05:49:38;;;;;;;6.28;2.10;;;11.90;99.90;;;;;;5054271;28;20108;-43
2023/04/22 05:52:04;;;;;;;4.72;2.08;;;11.90;99.90;;;;;;5054209;28;20102;-43
2023/04/22 05:54:30;;;;;;;3.78;2.00;;;11.90;99.90;;;;;;5054169;28;20069;-43
2023/04/22 05:56:55;;;;;;;2.70;1.92;;;11.90;99.90;;;;;;5053655;28;20100;-45
2023/04/22 05:59:21;;;;;;;4.43;2.60;;;11.90;99.90;;;;;;5055171;28;20021;-44
2023/04/22 06:01:47;;;;;;;3.58;2.33;;;11.90;99.90;;;;;;5055992;28;20025;-44
2023/04/22 06:04:12;;;;;;;3.03;2.20;;;11.90;99.90;;;;;;5055952;28;20184;-42
2023/04/22 06:06:38;;;;;;;3.92;2.20;;;11.90;99.90;;;;;;5053683;28;20025;-39
2023/04/22 06:09:05;;;;;;;3.95;2.90;;;11.90;99.90;;;;;;5053945;28;20394;-41
2023/04/22 06:11:32;;;;;;;4.75;2.95;;;11.90;99.90;;;;;;5056458;28;20073;-41
2023/04/22 06:13:58;;;;;;;4.47;2.65;;;11.90;99.90;;;;;;5055763;28;20036;-43
2023/04/22 06:16:24;;;;;;;4.70;2.65;;;11.90;99.90;;;;;;5051610;28;20144;-41
2023/04/22 06:18:49;;;;;;;3.78;2.40;;;11.90;99.90;;;;;;5053497;28;20025;-44
2023/04/22 06:21:15;;;;;;;3.65;2.17;;;11.90;99.90;;;;;;5053297;28;20495;-42
2023/04/22 06:23:41;;;;;;;3.75;2.58;;;12.00;99.90;;;;;;5054247;28;20036;-43
2023/04/22 06:26:07;;;;;;;6.75;2.58;;;11.90;99.90;;;;;;5054796;28;20652;-42
2023/04/22 06:28:33;;;;;;;2.95;2.30;;;12.00;99.90;;;;;;5053689;28;20467;-43
2023/04/22 06:30:59;;;;;;;3.13;2.40;;;12.00;99.90;;;;;;5056775;28;20079;-42
2023/04/22 06:33:24;;;;;;;5.20;2.83;;;12.00;99.90;;;;;;5054831;28;20025;-44
2023/04/22 06:35:50;;;;;;;5.05;2.65;;;11.90;99.90;;;;;;5054853;28;20028;-43
2023/04/22 06:38:15;;;;;;;3.85;2.50;;;12.00;99.90;;;;;;5053808;28;20376;-39
2023/04/22 06:40:42;;;;;;;3.90;2.30;;;12.00;99.90;;;;;;5055168;28;20033;-44
2023/04/22 06:43:07;;;;;;;6.00;2.50;;;12.00;99.90;;;;;;5054705;28;20024;-41
2023/04/22 06:45:33;;;;;;;4.05;2.70;;;12.00;99.90;;;;;;5053537;28;20021;-44
2023/04/22 06:47:59;;;;;;;3.33;2.60;;;12.00;99.90;;;;;;5053340;28;20472;-43
2023/04/22 06:50:24;;;;;;;3.60;2.20;;;12.00;99.90;;;;;;5054312;28;20106;-43
2023/04/22 06:52:50;;;;;;;4.00;2.60;;;12.00;99.90;;;;;;5054659;28;20053;-41
2023/04/22 06:55:16;;;;;;;3.13;2.40;;;12.00;99.90;;;;;;5054340;28;20029;-45
2023/04/22 06:57:41;;;;;;;4.50;2.25;;;12.00;99.90;;;;;;5054546;28;20029;-40
2023/04/22 07:00:07;;;;;;;6.60;2.60;;;12.10;99.90;;;;;;5052195;28;20033;-43
2023/04/22 07:02:33;;;;;;;2.95;2.20;;;12.00;99.90;;;;;;5054209;28;20115;-43
2023/04/22 07:04:59;;;;;;;4.18;2.10;;;12.00;99.90;;;;;;5054214;28;20060;-43
2023/04/22 07:07:25;;;;;;;4.85;2.60;;;12.00;99.90;;;;;;5053802;28;20050;-43
2023/04/22 07:09:51;;;;;;;2.78;2.20;;;12.00;99.90;;;;;;5054066;28;20044;-42
2023/04/22 07:12:16;;;;;;;3.42;2.38;;;12.00;99.90;;;;;;5053235;28;20028;-45
2023/04/22 07:14:45;;;;;;;4.25;2.22;;;12.10;99.90;;;;;;5052941;28;20021;-41
2023/04/22 07:17:11;;;;;;;3.83;2.40;;;12.10;99.90;;;;;;5052347;28;20021;-42
2023/04/22 07:19:38;;;;;;;4.40;2.28;;;12.00;99.90;;;;;;5052434;28;20040;-45
2023/04/22 07:22:05;;;;;;;3.72;2.00;;;12.10;99.90;;;;;;5053215;28;20025;-43
2023/04/22 07:24:31;;;;;;;3.42;2.42;;;12.10;99.90;;;;;;5053328;28;20455;-44
2023/04/22 07:26:57;;;;;;;3.92;2.70;;;12.10;99.90;;;;;;5052940;28;20017;-43
2023/04/22 07:29:22;;;;;;;5.72;2.35;;;12.10;99.90;;;;;;5052162;28;20027;-43
2023/04/22 07:31:48;;;;;;;3.50;2.40;;;12.10;99.90;;;;;;5053527;28;20044;-44
2023/04/22 07:34:14;;;;;;;2.80;2.15;;;12.10;99.90;;;;;;5053172;28;20018;-44
2023/04/22 07:36:40;;;;;;;3.47;2.47;;;12.10;99.90;;;;;;5051767;28;20029;-41
2023/04/22 07:39:06;;;;;;;3.25;2.30;;;12.10;99.90;;;;;;5053279;28;20059;-43
2023/04/22 07:41:32;;;;;;;3.00;2.05;;;12.10;99.90;;;;;;5053930;28;20021;-43
2023/04/22 07:43:58;;;;;;;2.95;2.15;;;12.10;99.90;;;;;;5053332;28;20487;-41
2023/04/22 07:46:24;;;;;;;4.10;2.25;;;12.10;99.90;;;;;;5052362;28;20029;-43
2023/04/22 07:48:50;;;;;;;2.78;2.15;;;12.10;99.90;;;;;;5052237;28;20021;-45
2023/04/22 07:51:16;;;;;;;2.92;2.28;;;12.10;99.90;;;;;;5052294;28;20479;-45
2023/04/22 07:53:41;;;;;;;4.32;2.42;;;12.10;99.90;;;;;;5053672;28;20463;-43
2023/04/22 07:56:07;;;;;;;2.75;2.33;;;12.10;99.90;;;;;;5053838;28;20028;-41
2023/04/22 07:58:33;;;;;;;2.97;2.10;;;12.10;99.90;;;;;;5054295;28;20036;-43
2023/04/22 08:00:58;;;;;;;3.40;2.13;;;12.10;99.90;;;;;;5054101;28;20092;-45
2023/04/22 08:03:24;;;;;;;3.08;2.47;;;12.20;99.90;;;;;;5053082;28;20091;-43
2023/04/22 08:05:50;;;;;;;4.25;2.05;;;12.20;99.90;;;;;;5051417;28;20028;-43
2023/04/22 08:08:15;;;;;;;2.83;2.20;;;12.20;99.90;;;;;;5052652;28;20017;-46
2023/04/22 08:10:41;;;;;;;5.78;2.25;;;12.10;99.90;;;;;;5051560;28;20558;-44
2023/04/22 08:13:07;;;;;;;3.15;2.10;;;12.10;99.90;;;;;;5051420;28;20114;-41
2023/04/22 08:15:32;;;;;;;3.60;2.00;;;12.10;99.90;;;;;;5051727;28;20021;-44
2023/04/22 08:17:58;;;;;;;3.15;2.17;;;12.20;99.90;;;;;;5051015;28;20487;-44
2023/04/22 08:20:24;;;;;;;2.58;2.13;;;12.20;99.90;;;;;;5050988;28;20021;-44
2023/04/22 08:22:56;;;;;;;3.15;2.17;;;12.10;99.90;;;;;;5051419;28;20057;-44
2023/04/22 08:25:21;;;;;;;3.17;1.92;;;12.10;99.90;;;;;;5051199;28;20021;-43
2023/04/22 08:27:48;;;;;;;4.07;2.03;;;12.10;99.90;;;;;;5052195;28;20441;-44
2023/04/22 08:30:14;;;;;;;3.47;1.80;;;12.10;99.90;;;;;;5051268;28;20029;-43
2023/04/22 08:32:39;;;;;;;3.25;1.83;;;12.10;99.90;;;;;;5051243;28;20028;-41
2023/04/22 08:35:05;;;;;;;2.55;1.52;;;12.10;99.90;;;;;;5053140;28;20025;-43
2023/04/22 08:37:31;;;;;;;4.70;1.85;;;12.10;99.90;;;;;;5051307;28;20036;-43
2023/04/22 08:39:56;;;;;;;3.30;2.00;;;12.10;99.90;;;;;;5051629;28;20522;-45
2023/04/22 08:42:22;;;;;;;3.78;2.05;;;12.10;99.90;;;;;;5051709;28;20021;-43
2023/04/22 08:44:48;;;;;;;4.63;1.73;;;12.10;99.90;;;;;;5051521;28;20484;-44
2023/04/22 08:47:15;;;;;;;2.75;2.05;;;12.20;99.90;;;;;;5051624;28;20491;-44
2023/04/22 08:49:42;;;;;;;2.17;1.85;;;12.10;99.90;;;;;;5052081;28;20414;-43
2023/04/22 08:52:10;;;;;;;2.85;1.67;;;12.20;99.90;;;;;;5052223;28;20033;-44
2023/04/22 08:54:36;;;;;;;3.60;1.83;;;12.20;99.90;;;;;;5051198;28;20032;-44
2023/04/22 08:57:02;;;;;;;4.75;1.92;;;12.10;99.90;;;;;;5051714;28;20029;-42
2023/04/22 08:59:30;;;;;;;7.20;1.70;;;12.10;99.90;;;;;;5051230;28;20021;-45
2023/04/22 09:01:57;;;;;;;1.75;1.42;;;12.10;99.90;;;;;;5051863;28;20045;-43
2023/04/22 09:04:23;;;;;;;4.65;1.98;;;12.20;99.90;;;;;;5050264;28;20108;-43
2023/04/22 09:06:49;;;;;;;2.78;1.63;;;12.20;99.90;;;;;;5051269;28;20125;-43
2023/04/22 09:09:14;;;;;;;2.58;1.60;;;12.20;99.90;;;;;;5051291;28;20043;-44
2023/04/22 09:11:40;;;;;;;3.78;1.70;;;12.20;99.90;;;;;;5051436;28;20136;-43
2023/04/22 09:14:06;;;;;;;2.17;1.65;;;12.20;99.90;;;;;;5052042;28;20096;-43
2023/04/22 09:16:33;;;;;;;2.15;1.85;;;12.20;99.90;;;;;;5050545;28;20380;-44
2023/04/22 09:18:59;;;;;;;2.20;1.52;;;12.20;99.90;;;;;;5054509;28;20031;-44
2023/04/22 09:21:28;;;;;;;3.63;1.90;;;12.20;99.90;;;;;;5054980;28;20031;-44
2023/04/22 09:23:55;;;;;;;5.57;1.67;;;12.20;99.90;;;;;;5055187;28;20075;-41
2023/04/22 09:26:23;;;;;;;5.32;1.80;;;12.20;99.90;;;;;;5054833;28;20021;-45
2023/04/22 09:28:53;;;;;;;1.90;1.30;;;12.20;99.90;;;;;;5055342;28;20025;-41
2023/04/22 09:31:20;;;;;;;3.20;1.60;;;12.20;99.90;;;;;;5055556;28;20063;-44
2023/04/22 09:33:56;;;;;;;2.20;1.48;;;12.20;99.90;;;;;;5055275;28;20553;-44
2023/04/22 09:36:29;;;;;;;2.28;1.50;;;12.20;99.90;;;;;;5054579;28;20067;-44
2023/04/22 09:39:06;;;;;;;2.53;1.38;;;12.20;99.90;;;;;;5054626;28;20090;-44
2023/04/22 09:41:33;;;;;;;3.05;1.60;;;12.20;99.90;;;;;;5054867;28;20079;-44
2023/04/22 09:43:59;;;;;;;1.85;1.25;;;12.20;99.90;;;;;;5054831;28;20028;-42
2023/04/22 09:46:26;;;;;;;2.13;1.20;;;12.30;99.90;;;;;;5053884;28;20570;-38
2023/04/22 09:48:54;;;;;;;1.83;1.40;;;12.30;99.90;;;;;;5054540;28;20095;-41
2023/04/22 09:51:20;;;;;;;2.92;1.50;;;12.40;99.90;;;;;;5054523;28;20025;-43
2023/04/22 09:54:00;;;;;;;3.78;1.45;;;12.40;99.90;;;;;;5054548;28;20021;-43
2023/04/22 09:56:47;;;;;;;1.45;1.20;;;12.40;99.90;;;;;;5053932;28;20029;-43
2023/04/22 09:59:14;;;;;;;2.88;1.38;;;12.40;99.90;;;;;;5054719;28;20430;-43
2023/04/22 10:01:40;;;;;;;3.50;1.42;;;12.40;99.90;;;;;;5054378;28;20028;-41
2023/04/22 10:04:10;;;;;;;1.95;1.33;;;12.50;99.90;;;;;;5054735;28;20387;-43
2023/04/22 10:06:36;;;;;;;2.25;1.40;;;12.50;99.90;;;;;;5053710;28;20024;-43
2023/04/22 10:09:03;;;;;;;2.22;1.25;;;12.40;99.90;;;;;;5054119;28;20436;-43
2023/04/22 10:11:31;;;;;;;4.13;1.13;;;12.50;99.90;;;;;;5055486;28;20055;-44
2023/04/22 10:13:57;;;;;;;3.72;1.45;;;12.50;99.90;;;;;;5054526;28;20085;-43
2023/04/22 10:16:24;;;;;;;2.75;1.40;;;12.50;99.90;;;;;;5053493;28;20064;-45
2023/04/22 10:18:53;;;;;;;3.08;1.17;;;12.50;99.90;;;;;;5053782;28;20099;-44
2023/04/22 10:21:20;;;;;;;2.28;1.25;;;12.50;99.90;;;;;;5053799;28;20029;-43
2023/04/22 10:23:47;;;;;;;1.75;1.25;;;12.60;99.90;;;;;;5053721;28;20021;-43
2023/04/22 10:26:50;;;;;;;3.50;0.98;;;12.50;99.90;;;;;;5053045;28;20033;-43
2023/04/22 10:29:17;;;;;;;2.90;1.20;;;12.50;99.90;;;;;;5052930;28;20021;-43
2023/04/22 10:31:50;;;;;;;2.40;1.50;;;12.60;99.90;;;;;;5054007;28;20029;-43
2023/04/22 10:34:17;;;;;;;2.55;1.38;;;12.60;99.90;;;;;;5053586;28;20547;-43
2023/04/22 10:37:05;;;;;;;2.25;1.25;;;12.60;99.90;;;;;;5052940;28;20475;-44
2023/04/22 10:39:31;;;;;;;2.83;1.50;;;12.60;99.90;;;;;;5053506;28;20029;-44
2023/04/22 10:42:02;;;;;;;4.25;1.48;;;12.50;99.90;;;;;;5053412;28;20075;-43
2023/04/22 10:44:43;;;;;;;2.03;1.20;;;12.50;99.90;;;;;;5053484;28;20092;-44
2023/04/22 10:47:09;;;;;;;2.70;1.48;;;12.50;99.90;;;;;;5052832;28;20025;-45
2023/04/22 10:49:34;;;;;;;3.45;1.55;;;12.50;99.90;;;;;;5053247;28;20044;-40
2023/04/22 10:52:02;;;;;;;2.00;1.27;;;12.50;99.90;;;;;;5053323;28;20029;-43
2023/04/22 10:54:30;;;;;;;2.63;1.50;;;12.50;99.90;;;;;;5053134;28;20033;-42
2023/04/22 10:57:03;;;;;;;3.95;1.42;;;12.60;99.90;;;;;;5052615;28;20127;-44
2023/04/22 10:59:34;;;;;;;2.90;1.40;;;12.60;99.90;;;;;;5052978;28;20021;-38
2023/04/22 11:02:07;;;;;;;3.97;1.55;;;12.60;99.90;;;;;;5053023;28;20446;-44
2023/04/22 11:04:33;;;;;;;2.40;1.30;;;12.60;99.90;;;;;;5052981;28;20032;-44
2023/04/22 11:07:29;;;;;;;2.22;1.50;;;12.60;99.90;;;;;;5052410;28;20392;-43
2023/04/22 11:10:01;;;;;;;2.67;1.17;;;12.60;99.90;;;;;;5052745;28;20040;-40
2023/04/22 11:15:05;;;;;;;1.95;1.30;;;12.60;99.90;;;;;;5052800;28;20025;-44
2023/04/22 11:17:31;;;;;;;2.45;1.33;;;12.60;99.90;;;;;;5052254;28;20029;-45
2023/04/22 11:19:58;;;;;;;3.47;1.38;;;12.60;99.90;;;;;;5053572;28;20119;-43
2023/04/22 11:22:24;;;;;;;2.20;1.40;;;12.70;99.90;;;;;;5052558;28;20364;-43
2023/04/22 11:24:55;;;;;;;3.65;1.30;;;12.70;99.90;;;;;;5052836;28;20024;-43
2023/04/22 11:27:25;;;;;;;3.10;1.40;;;12.70;99.90;;;;;;5052066;28;20029;-44
2023/04/22 11:30:00;;;;;;;1.33;1.10;;;12.60;99.90;;;;;;5053367;28;20032;-43
2023/04/22 11:32:27;;;;;;;6.10;1.38;;;12.70;99.90;;;;;;5052820;28;20104;-41
2023/04/22 11:34:53;;;;;;;3.05;1.50;;;12.60;99.90;;;;;;5052187;28;20095;-42
2023/04/22 11:37:19;;;;;;;4.03;1.80;;;12.70;99.90;;;;;;5051656;28;20120;-42
2023/04/22 11:39:44;;;;;;;3.30;1.40;;;12.60;99.90;;;;;;5053195;28;20036;-43
2023/04/22 11:42:13;;;;;;;2.17;1.15;;;12.60;99.90;;;;;;5052810;28;20035;-44
2023/04/22 11:44:39;;;;;;;5.22;1.52;;;12.50;99.90;;;;;;5052148;28;20483;-44
2023/04/22 11:47:05;;;;;;;2.53;1.70;;;12.60;99.90;;;;;;5051811;28;20479;-43
2023/04/22 11:49:33;;;;;;;3.20;1.50;;;12.50;99.90;;;;;;5051882;28;20043;-44
2023/04/22 11:51:59;;;;;;;2.22;1.27;;;12.60;99.90;;;;;;5051991;28;20028;-45
2023/04/22 11:54:33;;;;;;;2.63;1.60;;;12.70;99.90;;;;;;5052099;28;20067;-45
2023/04/22 11:57:14;;;;;;;3.35;1.40;;;12.60;99.90;;;;;;5051452;28;20033;-43
2023/04/22 11:59:40;;;;;;;4.07;1.73;;;12.60;99.90;;;;;;5052006;28;20039;-45
2023/04/22 12:02:06;;;;;;;5.55;1.70;;;12.60;99.90;;;;;;5051756;28;20120;-45
2023/04/22 12:04:39;;;;;;;3.88;1.70;;;12.60;99.90;;;;;;5051760;28;20036;-43
2023/04/22 12:07:05;;;;;;;4.72;1.60;;;12.60;99.90;;;;;;5051128;28;20021;-42
2023/04/22 12:09:31;;;;;;;2.85;1.48;;;12.70;99.90;;;;;;5051700;28;20039;-44
2023/04/22 12:11:57;;;;;;;2.78;1.30;;;12.60;99.90;;;;;;5052083;28;20025;-45
2023/04/22 12:14:36;;;;;;;3.13;1.50;;;12.70;99.90;;;;;;5051469;28;20033;-43
2023/04/22 12:17:08;;;;;;;4.20;1.75;;;12.70;99.90;;;;;;5051307;28;20386;-45
2023/04/22 12:19:33;;;;;;;8.90;1.95;;;12.70;99.90;;;;;;5051460;28;20111;-41
2023/04/22 12:21:59;;;;;;;3.17;1.40;;;12.70;99.90;;;;;;5051374;28;20100;-44
2023/04/22 12:24:28;;;;;;;2.72;1.50;;;12.80;99.90;;;;;;5051482;28;20055;-43
2023/04/22 12:26:55;;;;;;;2.17;1.00;;;12.80;99.90;;;;;;5051474;28;20681;-42
2023/04/22 12:29:32;;;;;;;2.75;1.25;;;12.70;99.90;;;;;;5051456;28;20029;-44
2023/04/22 12:31:58;;;;;;;5.45;1.80;;;12.70;99.90;;;;;;5051544;28;20025;-41
2023/04/22 12:34:24;;;;;;;3.22;1.38;;;12.70;99.90;;;;;;5051260;28;20491;-44
2023/04/22 12:36:50;;;;;;;5.50;1.60;;;12.70;99.90;;;;;;5050633;28;20052;-45
2023/04/22 12:39:15;;;;;;;1.98;1.17;;;12.70;99.90;;;;;;5051002;28;20025;-43
2023/04/22 12:41:41;;;;;;;2.85;1.50;;;12.70;99.90;;;;;;5051127;28;20028;-45
2023/04/22 12:44:09;;;;;;;3.45;1.48;;;12.70;99.90;;;;;;5051205;28;20530;-45
2023/04/22 12:46:35;;;;;;;2.97;1.70;;;12.70;99.90;;;;;;5050783;28;20025;-45
2023/04/22 12:49:01;;;;;;;2.20;1.20;;;12.70;99.90;;;;;;5051258;28;20032;-45